Max, North Dakota
Current Conditions -  °F | °C
As of 2:54 PM on Tuesday 21 Oct 2014 (Local Time) from KMOT Reporting Station
Clear Clear  
Wind Chill: 70°   Ceiling: Unl
Heat Index: 70°   Visibility: 10mi
Dew Point: 41°   Wind: 14mph
Humidity: 35%   Direction: 130°SE
Pressure: 29.66"   Gusts: NA
Location:  47.82°N, 101.3°W
Report Text: KMOT 211954Z 13012KT 10SM CLR 21/05 A2966 RMK AO2 SLP046 T02110050
Loading
Personal Weather Stations






























Interactive Weather Map
Tropical Storm Tracking
New forecast layout! Learn more

10-Day Weather Forecast

Advertisements
Track Severe Weather on mobile